sensor_id;sensor_type;location;lat;lon;timestamp;P1;durP1;ratioP1;P2;durP2;ratioP2
50968;SDS011;36982;51.474;7.228;2024-03-08T00:01:09;16.03;;;8.97;;
50968;SDS011;36982;51.474;7.228;2024-03-08T00:03:35;14.73;;;9.17;;
50968;SDS011;36982;51.474;7.228;2024-03-08T00:06:00;15.13;;;9.30;;
50968;SDS011;36982;51.474;7.228;2024-03-08T00:08:26;14.73;;;8.30;;
50968;SDS011;36982;51.474;7.228;2024-03-08T00:10:52;16.03;;;9.53;;
50968;SDS011;36982;51.474;7.228;2024-03-08T00:13:17;15.10;;;7.90;;
50968;SDS011;36982;51.474;7.228;2024-03-08T00:15:43;13.83;;;8.90;;
50968;SDS011;36982;51.474;7.228;2024-03-08T00:18:09;13.90;;;8.60;;
50968;SDS011;36982;51.474;7.228;2024-03-08T00:20:36;12.03;;;7.30;;
50968;SDS011;36982;51.474;7.228;2024-03-08T00:23:02;15.43;;;8.83;;
50968;SDS011;36982;51.474;7.228;2024-03-08T00:25:27;16.47;;;9.47;;
50968;SDS011;36982;51.474;7.228;2024-03-08T00:27:53;18.50;;;9.43;;
50968;SDS011;36982;51.474;7.228;2024-03-08T00:30:21;11.57;;;7.90;;
50968;SDS011;36982;51.474;7.228;2024-03-08T00:32:48;13.83;;;9.33;;
50968;SDS011;36982;51.474;7.228;2024-03-08T00:35:13;15.43;;;9.67;;
50968;SDS011;36982;51.474;7.228;2024-03-08T00:37:39;15.83;;;9.93;;
50968;SDS011;36982;51.474;7.228;2024-03-08T00:40:06;14.53;;;8.87;;
50968;SDS011;36982;51.474;7.228;2024-03-08T00:42:34;14.73;;;9.90;;
50968;SDS011;36982;51.474;7.228;2024-03-08T00:45:00;13.10;;;8.83;;
50968;SDS011;36982;51.474;7.228;2024-03-08T00:47:26;16.50;;;9.57;;
50968;SDS011;36982;51.474;7.228;2024-03-08T00:49:52;14.97;;;9.33;;
50968;SDS011;36982;51.474;7.228;2024-03-08T00:52:18;16.40;;;9.33;;
50968;SDS011;36982;51.474;7.228;2024-03-08T00:54:44;18.40;;;9.60;;
50968;SDS011;36982;51.474;7.228;2024-03-08T00:57:10;15.60;;;10.43;;
50968;SDS011;36982;51.474;7.228;2024-03-08T00:59:37;13.53;;;9.00;;
50968;SDS011;36982;51.474;7.228;2024-03-08T01:02:03;16.00;;;9.87;;
50968;SDS011;36982;51.474;7.228;2024-03-08T01:04:29;15.13;;;8.13;;
50968;SDS011;36982;51.474;7.228;2024-03-08T01:06:58;13.67;;;8.97;;
50968;SDS011;36982;51.474;7.228;2024-03-08T01:09:24;14.03;;;9.03;;
50968;SDS011;36982;51.474;7.228;2024-03-08T01:11:51;16.10;;;9.90;;
50968;SDS011;36982;51.474;7.228;2024-03-08T01:14:19;12.27;;;7.00;;
50968;SDS011;36982;51.474;7.228;2024-03-08T01:16:47;16.50;;;8.47;;
50968;SDS011;36982;51.474;7.228;2024-03-08T01:19:13;14.77;;;9.53;;
50968;SDS011;36982;51.474;7.228;2024-03-08T01:21:39;16.67;;;9.30;;
50968;SDS011;36982;51.474;7.228;2024-03-08T01:24:04;16.67;;;9.37;;
50968;SDS011;36982;51.474;7.228;2024-03-08T01:26:30;14.03;;;9.03;;
50968;SDS011;36982;51.474;7.228;2024-03-08T01:28:56;14.47;;;9.50;;
50968;SDS011;36982;51.474;7.228;2024-03-08T01:31:21;15.03;;;8.30;;
50968;SDS011;36982;51.474;7.228;2024-03-08T01:33:47;16.37;;;9.27;;
50968;SDS011;36982;51.474;7.228;2024-03-08T01:36:15;15.27;;;9.53;;
50968;SDS011;36982;51.474;7.228;2024-03-08T01:38:41;16.00;;;8.53;;
50968;SDS011;36982;51.474;7.228;2024-03-08T01:41:10;13.23;;;8.40;;
50968;SDS011;36982;51.474;7.228;2024-03-08T01:43:35;15.70;;;9.70;;
50968;SDS011;36982;51.474;7.228;2024-03-08T01:46:01;9.20;;;5.60;;
50968;SDS011;36982;51.474;7.228;2024-03-08T01:48:27;18.20;;;9.77;;
50968;SDS011;36982;51.474;7.228;2024-03-08T01:50:54;14.10;;;9.20;;
50968;SDS011;36982;51.474;7.228;2024-03-08T01:53:22;17.47;;;9.90;;
50968;SDS011;36982;51.474;7.228;2024-03-08T01:55:49;15.87;;;9.73;;
50968;SDS011;36982;51.474;7.228;2024-03-08T01:58:17;13.33;;;9.13;;
50968;SDS011;36982;51.474;7.228;2024-03-08T02:00:47;17.07;;;8.73;;
50968;SDS011;36982;51.474;7.228;2024-03-08T02:03:16;16.63;;;10.03;;
50968;SDS011;36982;51.474;7.228;2024-03-08T02:05:42;14.63;;;9.50;;
50968;SDS011;36982;51.474;7.228;2024-03-08T02:08:08;12.20;;;7.13;;
50968;SDS011;36982;51.474;7.228;2024-03-08T02:10:39;16.50;;;10.37;;
50968;SDS011;36982;51.474;7.228;2024-03-08T02:13:09;15.17;;;8.77;;
50968;SDS011;36982;51.474;7.228;2024-03-08T02:15:54;13.57;;;8.83;;
50968;SDS011;36982;51.474;7.228;2024-03-08T02:18:21;14.87;;;10.20;;
50968;SDS011;36982;51.474;7.228;2024-03-08T02:20:51;17.10;;;9.60;;
50968;SDS011;36982;51.474;7.228;2024-03-08T02:23:21;15.57;;;9.60;;
50968;SDS011;36982;51.474;7.228;2024-03-08T02:25:47;15.90;;;9.37;;
50968;SDS011;36982;51.474;7.228;2024-03-08T02:28:14;15.53;;;8.63;;
50968;SDS011;36982;51.474;7.228;2024-03-08T02:30:40;14.53;;;9.47;;
50968;SDS011;36982;51.474;7.228;2024-03-08T02:33:06;15.40;;;8.87;;
50968;SDS011;36982;51.474;7.228;2024-03-08T02:35:32;15.57;;;9.63;;
50968;SDS011;36982;51.474;7.228;2024-03-08T02:37:59;13.60;;;8.40;;
50968;SDS011;36982;51.474;7.228;2024-03-08T02:40:25;14.93;;;8.30;;
50968;SDS011;36982;51.474;7.228;2024-03-08T02:42:51;14.87;;;9.03;;
50968;SDS011;36982;51.474;7.228;2024-03-08T02:45:16;15.30;;;10.00;;
50968;SDS011;36982;51.474;7.228;2024-03-08T02:47:42;13.57;;;6.90;;
50968;SDS011;36982;51.474;7.228;2024-03-08T02:50:08;15.67;;;8.90;;
50968;SDS011;36982;51.474;7.228;2024-03-08T02:52:34;14.30;;;9.13;;
50968;SDS011;36982;51.474;7.228;2024-03-08T02:55:00;15.43;;;8.63;;
50968;SDS011;36982;51.474;7.228;2024-03-08T02:57:26;16.83;;;10.33;;
50968;SDS011;36982;51.474;7.228;2024-03-08T02:59:53;14.20;;;8.53;;
50968;SDS011;36982;51.474;7.228;2024-03-08T03:02:19;18.40;;;9.13;;
50968;SDS011;36982;51.474;7.228;2024-03-08T03:04:44;15.83;;;9.10;;
50968;SDS011;36982;51.474;7.228;2024-03-08T03:07:10;17.27;;;9.90;;
50968;SDS011;36982;51.474;7.228;2024-03-08T03:09:36;13.27;;;8.67;;
50968;SDS011;36982;51.474;7.228;2024-03-08T03:12:02;13.83;;;8.00;;
50968;SDS011;36982;51.474;7.228;2024-03-08T03:14:27;17.30;;;10.13;;
50968;SDS011;36982;51.474;7.228;2024-03-08T03:16:53;16.23;;;8.80;;
50968;SDS011;36982;51.474;7.228;2024-03-08T03:19:20;16.53;;;10.47;;
50968;SDS011;36982;51.474;7.228;2024-03-08T03:21:46;15.93;;;9.93;;
50968;SDS011;36982;51.474;7.228;2024-03-08T03:24:12;15.90;;;9.73;;
50968;SDS011;36982;51.474;7.228;2024-03-08T03:26:41;13.63;;;8.10;;
50968;SDS011;36982;51.474;7.228;2024-03-08T03:29:08;14.33;;;9.30;;
50968;SDS011;36982;51.474;7.228;2024-03-08T03:31:34;17.50;;;10.83;;
50968;SDS011;36982;51.474;7.228;2024-03-08T03:34:01;16.70;;;8.37;;
50968;SDS011;36982;51.474;7.228;2024-03-08T03:36:28;15.43;;;9.63;;
50968;SDS011;36982;51.474;7.228;2024-03-08T03:38:55;20.37;;;10.30;;
50968;SDS011;36982;51.474;7.228;2024-03-08T03:41:30;16.57;;;9.63;;
50968;SDS011;36982;51.474;7.228;2024-03-08T03:43:56;17.40;;;10.07;;
50968;SDS011;36982;51.474;7.228;2024-03-08T03:46:22;14.97;;;8.73;;
50968;SDS011;36982;51.474;7.228;2024-03-08T03:48:47;17.53;;;9.87;;
50968;SDS011;36982;51.474;7.228;2024-03-08T03:51:13;17.77;;;10.07;;
50968;SDS011;36982;51.474;7.228;2024-03-08T03:53:40;18.43;;;10.23;;
50968;SDS011;36982;51.474;7.228;2024-03-08T03:56:06;16.87;;;10.40;;
50968;SDS011;36982;51.474;7.228;2024-03-08T03:58:35;16.10;;;9.73;;
50968;SDS011;36982;51.474;7.228;2024-03-08T04:01:01;18.73;;;9.63;;
50968;SDS011;36982;51.474;7.228;2024-03-08T04:03:29;16.63;;;9.90;;
50968;SDS011;36982;51.474;7.228;2024-03-08T04:05:54;14.03;;;8.03;;
50968;SDS011;36982;51.474;7.228;2024-03-08T04:08:20;17.37;;;9.23;;
50968;SDS011;36982;51.474;7.228;2024-03-08T04:10:45;15.80;;;8.10;;
50968;SDS011;36982;51.474;7.228;2024-03-08T04:13:11;20.37;;;11.33;;
50968;SDS011;36982;51.474;7.228;2024-03-08T04:15:37;18.17;;;9.87;;
50968;SDS011;36982;51.474;7.228;2024-03-08T04:18:03;17.00;;;9.47;;
50968;SDS011;36982;51.474;7.228;2024-03-08T04:20:28;17.63;;;8.83;;
50968;SDS011;36982;51.474;7.228;2024-03-08T04:22:55;15.90;;;10.67;;
50968;SDS011;36982;51.474;7.228;2024-03-08T04:25:21;19.77;;;10.13;;
50968;SDS011;36982;51.474;7.228;2024-03-08T04:27:47;16.30;;;9.30;;
50968;SDS011;36982;51.474;7.228;2024-03-08T04:30:14;15.90;;;8.80;;
50968;SDS011;36982;51.474;7.228;2024-03-08T04:32:40;16.53;;;9.37;;
50968;SDS011;36982;51.474;7.228;2024-03-08T04:35:06;18.17;;;10.70;;
50968;SDS011;36982;51.474;7.228;2024-03-08T04:37:33;18.17;;;10.60;;
50968;SDS011;36982;51.474;7.228;2024-03-08T04:39:59;16.93;;;10.30;;
50968;SDS011;36982;51.474;7.228;2024-03-08T04:42:25;15.93;;;10.47;;
50968;SDS011;36982;51.474;7.228;2024-03-08T04:44:54;20.50;;;10.97;;
50968;SDS011;36982;51.474;7.228;2024-03-08T04:47:20;18.87;;;10.67;;
50968;SDS011;36982;51.474;7.228;2024-03-08T04:49:46;17.87;;;10.80;;
50968;SDS011;36982;51.474;7.228;2024-03-08T04:52:11;17.47;;;10.83;;
50968;SDS011;36982;51.474;7.228;2024-03-08T04:54:37;23.47;;;10.20;;
50968;SDS011;36982;51.474;7.228;2024-03-08T04:57:03;17.27;;;9.20;;
50968;SDS011;36982;51.474;7.228;2024-03-08T04:59:29;17.97;;;10.30;;
50968;SDS011;36982;51.474;7.228;2024-03-08T05:01:55;20.13;;;11.07;;
50968;SDS011;36982;51.474;7.228;2024-03-08T05:04:21;17.50;;;10.50;;
50968;SDS011;36982;51.474;7.228;2024-03-08T05:06:47;21.83;;;11.63;;
50968;SDS011;36982;51.474;7.228;2024-03-08T05:09:13;18.47;;;11.03;;
50968;SDS011;36982;51.474;7.228;2024-03-08T05:11:40;19.37;;;11.83;;
50968;SDS011;36982;51.474;7.228;2024-03-08T05:14:06;19.30;;;11.80;;
50968;SDS011;36982;51.474;7.228;2024-03-08T05:16:32;18.00;;;11.20;;
50968;SDS011;36982;51.474;7.228;2024-03-08T05:18:57;16.57;;;9.50;;
50968;SDS011;36982;51.474;7.228;2024-03-08T05:21:23;20.40;;;11.90;;
50968;SDS011;36982;51.474;7.228;2024-03-08T05:23:48;19.27;;;10.40;;
50968;SDS011;36982;51.474;7.228;2024-03-08T05:26:15;18.33;;;10.57;;
50968;SDS011;36982;51.474;7.228;2024-03-08T05:28:44;15.63;;;8.90;;
50968;SDS011;36982;51.474;7.228;2024-03-08T05:31:09;16.77;;;10.07;;
50968;SDS011;36982;51.474;7.228;2024-03-08T05:33:35;18.90;;;11.10;;
50968;SDS011;36982;51.474;7.228;2024-03-08T05:36:01;22.40;;;11.70;;
50968;SDS011;36982;51.474;7.228;2024-03-08T05:38:27;19.27;;;10.23;;
50968;SDS011;36982;51.474;7.228;2024-03-08T05:40:53;19.97;;;12.27;;
50968;SDS011;36982;51.474;7.228;2024-03-08T05:43:19;19.53;;;11.03;;
50968;SDS011;36982;51.474;7.228;2024-03-08T05:45:45;19.87;;;11.00;;
50968;SDS011;36982;51.474;7.228;2024-03-08T05:48:11;21.97;;;11.67;;
50968;SDS011;36982;51.474;7.228;2024-03-08T05:50:38;18.27;;;10.83;;
50968;SDS011;36982;51.474;7.228;2024-03-08T05:53:04;19.07;;;11.17;;
50968;SDS011;36982;51.474;7.228;2024-03-08T05:55:32;19.07;;;10.13;;
50968;SDS011;36982;51.474;7.228;2024-03-08T05:58:01;18.37;;;10.77;;
50968;SDS011;36982;51.474;7.228;2024-03-08T06:00:27;18.37;;;11.50;;
50968;SDS011;36982;51.474;7.228;2024-03-08T06:02:52;20.03;;;11.77;;
50968;SDS011;36982;51.474;7.228;2024-03-08T06:05:18;20.93;;;11.50;;
50968;SDS011;36982;51.474;7.228;2024-03-08T06:07:44;21.27;;;10.83;;
50968;SDS011;36982;51.474;7.228;2024-03-08T06:10:10;14.77;;;8.17;;
50968;SDS011;36982;51.474;7.228;2024-03-08T06:12:37;17.70;;;10.10;;
50968;SDS011;36982;51.474;7.228;2024-03-08T06:15:06;14.17;;;8.80;;
50968;SDS011;36982;51.474;7.228;2024-03-08T06:17:34;18.03;;;10.37;;
50968;SDS011;36982;51.474;7.228;2024-03-08T06:20:00;19.67;;;11.20;;
50968;SDS011;36982;51.474;7.228;2024-03-08T06:22:25;16.67;;;10.93;;
50968;SDS011;36982;51.474;7.228;2024-03-08T06:24:51;18.67;;;11.13;;
50968;SDS011;36982;51.474;7.228;2024-03-08T06:27:19;21.90;;;11.33;;
50968;SDS011;36982;51.474;7.228;2024-03-08T06:29:44;16.43;;;9.73;;
50968;SDS011;36982;51.474;7.228;2024-03-08T06:32:10;18.37;;;11.23;;
50968;SDS011;36982;51.474;7.228;2024-03-08T06:34:35;19.80;;;11.70;;
50968;SDS011;36982;51.474;7.228;2024-03-08T06:37:01;20.83;;;10.57;;
50968;SDS011;36982;51.474;7.228;2024-03-08T06:39:27;22.23;;;11.33;;
50968;SDS011;36982;51.474;7.228;2024-03-08T06:41:56;22.67;;;11.70;;
50968;SDS011;36982;51.474;7.228;2024-03-08T06:44:22;19.23;;;11.03;;
50968;SDS011;36982;51.474;7.228;2024-03-08T06:46:47;17.70;;;9.73;;
50968;SDS011;36982;51.474;7.228;2024-03-08T06:49:13;18.10;;;10.87;;
50968;SDS011;36982;51.474;7.228;2024-03-08T06:51:40;14.93;;;7.50;;
50968;SDS011;36982;51.474;7.228;2024-03-08T06:54:06;22.60;;;12.30;;
50968;SDS011;36982;51.474;7.228;2024-03-08T06:56:34;19.77;;;11.50;;
50968;SDS011;36982;51.474;7.228;2024-03-08T06:58:59;20.03;;;11.13;;
50968;SDS011;36982;51.474;7.228;2024-03-08T07:01:27;22.40;;;11.40;;
50968;SDS011;36982;51.474;7.228;2024-03-08T07:03:56;17.30;;;9.63;;
50968;SDS011;36982;51.474;7.228;2024-03-08T07:06:22;14.60;;;8.30;;
50968;SDS011;36982;51.474;7.228;2024-03-08T07:08:48;18.27;;;11.67;;
50968;SDS011;36982;51.474;7.228;2024-03-08T07:11:14;21.57;;;11.70;;
50968;SDS011;36982;51.474;7.228;2024-03-08T07:13:43;17.10;;;9.50;;
50968;SDS011;36982;51.474;7.228;2024-03-08T07:16:12;20.40;;;11.33;;
50968;SDS011;36982;51.474;7.228;2024-03-08T07:18:37;18.93;;;11.27;;
50968;SDS011;36982;51.474;7.228;2024-03-08T07:21:08;19.97;;;12.20;;
50968;SDS011;36982;51.474;7.228;2024-03-08T07:23:35;20.40;;;11.30;;
50968;SDS011;36982;51.474;7.228;2024-03-08T07:26:19;18.90;;;11.27;;
50968;SDS011;36982;51.474;7.228;2024-03-08T07:28:46;21.67;;;11.63;;
50968;SDS011;36982;51.474;7.228;2024-03-08T07:31:11;18.90;;;11.03;;
50968;SDS011;36982;51.474;7.228;2024-03-08T07:33:40;18.17;;;11.17;;
50968;SDS011;36982;51.474;7.228;2024-03-08T07:36:07;20.50;;;10.73;;
50968;SDS011;36982;51.474;7.228;2024-03-08T07:38:34;21.77;;;11.83;;
50968;SDS011;36982;51.474;7.228;2024-03-08T07:41:01;19.53;;;12.07;;
50968;SDS011;36982;51.474;7.228;2024-03-08T07:43:28;19.43;;;10.80;;
50968;SDS011;36982;51.474;7.228;2024-03-08T07:45:56;24.00;;;11.90;;
50968;SDS011;36982;51.474;7.228;2024-03-08T07:48:24;20.23;;;10.60;;
50968;SDS011;36982;51.474;7.228;2024-03-08T07:50:50;19.13;;;11.50;;
50968;SDS011;36982;51.474;7.228;2024-03-08T07:53:18;15.83;;;8.20;;
50968;SDS011;36982;51.474;7.228;2024-03-08T07:55:45;18.90;;;11.37;;
50968;SDS011;36982;51.474;7.228;2024-03-08T07:58:17;18.97;;;11.13;;
50968;SDS011;36982;51.474;7.228;2024-03-08T08:00:43;19.57;;;10.37;;
50968;SDS011;36982;51.474;7.228;2024-03-08T08:03:09;15.63;;;9.20;;
50968;SDS011;36982;51.474;7.228;2024-03-08T08:05:35;20.40;;;11.03;;
50968;SDS011;36982;51.474;7.228;2024-03-08T08:08:05;19.43;;;11.40;;
50968;SDS011;36982;51.474;7.228;2024-03-08T08:10:33;22.00;;;11.27;;
50968;SDS011;36982;51.474;7.228;2024-03-08T08:12:59;19.80;;;10.93;;
50968;SDS011;36982;51.474;7.228;2024-03-08T08:15:29;19.33;;;11.83;;
50968;SDS011;36982;51.474;7.228;2024-03-08T08:17:56;19.83;;;11.27;;
50968;SDS011;36982;51.474;7.228;2024-03-08T08:20:23;21.30;;;11.40;;
50968;SDS011;36982;51.474;7.228;2024-03-08T08:22:49;19.83;;;11.63;;
50968;SDS011;36982;51.474;7.228;2024-03-08T08:25:15;19.50;;;11.43;;
50968;SDS011;36982;51.474;7.228;2024-03-08T08:30:16;22.37;;;11.83;;
50968;SDS011;36982;51.474;7.228;2024-03-08T08:32:51;22.10;;;12.37;;
50968;SDS011;36982;51.474;7.228;2024-03-08T08:35:17;17.03;;;10.37;;
50968;SDS011;36982;51.474;7.228;2024-03-08T08:37:44;21.17;;;11.90;;
50968;SDS011;36982;51.474;7.228;2024-03-08T08:40:13;23.20;;;12.63;;
50968;SDS011;36982;51.474;7.228;2024-03-08T08:42:47;15.53;;;8.53;;
50968;SDS011;36982;51.474;7.228;2024-03-08T08:45:13;18.90;;;11.40;;
50968;SDS011;36982;51.474;7.228;2024-03-08T08:47:40;19.60;;;10.73;;
50968;SDS011;36982;51.474;7.228;2024-03-08T08:50:08;18.00;;;10.83;;
50968;SDS011;36982;51.474;7.228;2024-03-08T08:52:36;19.87;;;10.97;;
50968;SDS011;36982;51.474;7.228;2024-03-08T08:55:03;14.90;;;9.63;;
50968;SDS011;36982;51.474;7.228;2024-03-08T08:57:32;17.90;;;11.13;;
50968;SDS011;36982;51.474;7.228;2024-03-08T09:00:01;14.30;;;8.93;;
50968;SDS011;36982;51.474;7.228;2024-03-08T09:02:40;23.33;;;12.20;;
50968;SDS011;36982;51.474;7.228;2024-03-08T09:05:09;18.40;;;11.03;;
50968;SDS011;36982;51.474;7.228;2024-03-08T09:07:36;18.17;;;10.77;;
50968;SDS011;36982;51.474;7.228;2024-03-08T09:10:02;11.00;;;7.50;;
50968;SDS011;36982;51.474;7.228;2024-03-08T09:12:29;19.87;;;11.50;;
50968;SDS011;36982;51.474;7.228;2024-03-08T09:14:54;18.37;;;10.63;;
50968;SDS011;36982;51.474;7.228;2024-03-08T09:17:20;20.63;;;11.23;;
50968;SDS011;36982;51.474;7.228;2024-03-08T09:19:47;18.33;;;11.00;;
50968;SDS011;36982;51.474;7.228;2024-03-08T09:22:16;18.17;;;10.30;;
50968;SDS011;36982;51.474;7.228;2024-03-08T09:24:49;10.07;;;6.47;;
50968;SDS011;36982;51.474;7.228;2024-03-08T09:27:15;17.90;;;10.27;;
50968;SDS011;36982;51.474;7.228;2024-03-08T09:29:42;17.73;;;10.37;;
50968;SDS011;36982;51.474;7.228;2024-03-08T09:32:09;17.70;;;9.33;;
50968;SDS011;36982;51.474;7.228;2024-03-08T09:34:36;19.33;;;10.63;;
50968;SDS011;36982;51.474;7.228;2024-03-08T09:37:02;17.47;;;9.87;;
50968;SDS011;36982;51.474;7.228;2024-03-08T09:39:29;20.80;;;11.27;;
50968;SDS011;36982;51.474;7.228;2024-03-08T09:41:55;12.83;;;7.40;;
50968;SDS011;36982;51.474;7.228;2024-03-08T09:44:21;17.60;;;10.30;;
50968;SDS011;36982;51.474;7.228;2024-03-08T09:46:48;19.23;;;10.97;;
50968;SDS011;36982;51.474;7.228;2024-03-08T09:49:18;18.00;;;11.57;;
50968;SDS011;36982;51.474;7.228;2024-03-08T09:51:44;19.20;;;11.13;;
50968;SDS011;36982;51.474;7.228;2024-03-08T09:54:11;16.17;;;10.30;;
50968;SDS011;36982;51.474;7.228;2024-03-08T09:56:38;19.43;;;11.67;;
50968;SDS011;36982;51.474;7.228;2024-03-08T09:59:09;20.13;;;11.60;;
50968;SDS011;36982;51.474;7.228;2024-03-08T10:01:53;14.80;;;8.30;;
50968;SDS011;36982;51.474;7.228;2024-03-08T10:04:24;19.77;;;11.10;;
50968;SDS011;36982;51.474;7.228;2024-03-08T10:06:53;18.70;;;11.40;;
50968;SDS011;36982;51.474;7.228;2024-03-08T10:09:20;16.60;;;10.37;;
50968;SDS011;36982;51.474;7.228;2024-03-08T10:11:50;13.07;;;7.90;;
50968;SDS011;36982;51.474;7.228;2024-03-08T10:14:15;19.50;;;10.33;;
50968;SDS011;36982;51.474;7.228;2024-03-08T10:16:41;18.20;;;11.40;;
50968;SDS011;36982;51.474;7.228;2024-03-08T10:19:07;19.23;;;11.30;;
50968;SDS011;36982;51.474;7.228;2024-03-08T10:21:47;21.77;;;11.67;;
50968;SDS011;36982;51.474;7.228;2024-03-08T10:24:14;15.83;;;8.97;;
50968;SDS011;36982;51.474;7.228;2024-03-08T10:26:39;19.13;;;10.23;;
50968;SDS011;36982;51.474;7.228;2024-03-08T10:29:08;16.73;;;9.53;;
50968;SDS011;36982;51.474;7.228;2024-03-08T10:31:34;14.00;;;8.10;;
50968;SDS011;36982;51.474;7.228;2024-03-08T10:34:04;13.63;;;8.20;;
50968;SDS011;36982;51.474;7.228;2024-03-08T10:36:37;19.57;;;11.17;;
50968;SDS011;36982;51.474;7.228;2024-03-08T10:39:08;18.43;;;11.30;;
50968;SDS011;36982;51.474;7.228;2024-03-08T10:41:58;18.90;;;11.97;;
50968;SDS011;36982;51.474;7.228;2024-03-08T10:47:15;20.00;;;11.93;;
50968;SDS011;36982;51.474;7.228;2024-03-08T10:52:16;12.43;;;8.03;;
50968;SDS011;36982;51.474;7.228;2024-03-08T10:54:43;20.33;;;11.90;;
50968;SDS011;36982;51.474;7.228;2024-03-08T10:57:17;18.70;;;11.43;;
50968;SDS011;36982;51.474;7.228;2024-03-08T10:59:45;19.27;;;10.73;;
50968;SDS011;36982;51.474;7.228;2024-03-08T11:02:15;18.53;;;11.53;;
50968;SDS011;36982;51.474;7.228;2024-03-08T11:04:48;22.40;;;13.13;;
50968;SDS011;36982;51.474;7.228;2024-03-08T11:07:15;17.87;;;10.23;;
50968;SDS011;36982;51.474;7.228;2024-03-08T11:09:45;20.17;;;11.67;;
50968;SDS011;36982;51.474;7.228;2024-03-08T11:12:19;17.20;;;11.37;;
50968;SDS011;36982;51.474;7.228;2024-03-08T11:14:49;17.23;;;11.07;;
50968;SDS011;36982;51.474;7.228;2024-03-08T11:17:16;19.03;;;11.37;;
50968;SDS011;36982;51.474;7.228;2024-03-08T11:20:17;17.23;;;10.47;;
50968;SDS011;36982;51.474;7.228;2024-03-08T11:22:52;18.73;;;10.93;;
50968;SDS011;36982;51.474;7.228;2024-03-08T11:25:38;18.47;;;9.13;;
50968;SDS011;36982;51.474;7.228;2024-03-08T11:30:41;17.37;;;10.83;;
50968;SDS011;36982;51.474;7.228;2024-03-08T11:33:41;14.20;;;9.20;;
50968;SDS011;36982;51.474;7.228;2024-03-08T11:36:21;15.20;;;9.30;;
50968;SDS011;36982;51.474;7.228;2024-03-08T11:38:57;16.87;;;11.30;;
50968;SDS011;36982;51.474;7.228;2024-03-08T11:41:23;18.10;;;11.57;;
50968;SDS011;36982;51.474;7.228;2024-03-08T11:44:02;18.50;;;11.73;;
50968;SDS011;36982;51.474;7.228;2024-03-08T11:46:32;18.87;;;10.53;;
50968;SDS011;36982;51.474;7.228;2024-03-08T11:48:59;17.43;;;10.43;;
50968;SDS011;36982;51.474;7.228;2024-03-08T11:51:26;16.57;;;10.83;;
50968;SDS011;36982;51.474;7.228;2024-03-08T11:53:52;17.37;;;10.43;;
50968;SDS011;36982;51.474;7.228;2024-03-08T11:56:18;14.37;;;9.60;;
50968;SDS011;36982;51.474;7.228;2024-03-08T12:01:33;17.60;;;10.80;;
50968;SDS011;36982;51.474;7.228;2024-03-08T12:03:59;16.10;;;10.70;;
50968;SDS011;36982;51.474;7.228;2024-03-08T12:06:39;17.33;;;11.20;;
50968;SDS011;36982;51.474;7.228;2024-03-08T12:09:09;17.47;;;10.83;;
50968;SDS011;36982;51.474;7.228;2024-03-08T12:11:36;15.33;;;9.33;;
50968;SDS011;36982;51.474;7.228;2024-03-08T12:14:02;13.70;;;8.17;;
50968;SDS011;36982;51.474;7.228;2024-03-08T12:16:28;13.67;;;8.37;;
50968;SDS011;36982;51.474;7.228;2024-03-08T12:18:54;13.53;;;9.70;;
50968;SDS011;36982;51.474;7.228;2024-03-08T12:21:20;12.13;;;6.10;;
50968;SDS011;36982;51.474;7.228;2024-03-08T12:23:53;14.10;;;9.20;;
50968;SDS011;36982;51.474;7.228;2024-03-08T12:29:15;17.33;;;9.27;;
50968;SDS011;36982;51.474;7.228;2024-03-08T12:31:51;11.23;;;6.23;;
50968;SDS011;36982;51.474;7.228;2024-03-08T12:34:20;11.30;;;7.20;;
50968;SDS011;36982;51.474;7.228;2024-03-08T12:36:47;9.43;;;6.47;;
50968;SDS011;36982;51.474;7.228;2024-03-08T12:39:19;9.47;;;6.03;;
50968;SDS011;36982;51.474;7.228;2024-03-08T12:41:55;9.83;;;5.60;;
50968;SDS011;36982;51.474;7.228;2024-03-08T12:44:24;6.37;;;5.00;;
50968;SDS011;36982;51.474;7.228;2024-03-08T12:46:50;7.10;;;5.00;;
50968;SDS011;36982;51.474;7.228;2024-03-08T12:49:18;8.07;;;5.40;;
50968;SDS011;36982;51.474;7.228;2024-03-08T12:51:47;9.50;;;6.23;;
50968;SDS011;36982;51.474;7.228;2024-03-08T12:54:13;10.23;;;6.63;;
50968;SDS011;36982;51.474;7.228;2024-03-08T12:56:39;9.27;;;6.37;;
50968;SDS011;36982;51.474;7.228;2024-03-08T12:59:05;9.43;;;5.80;;
50968;SDS011;36982;51.474;7.228;2024-03-08T13:01:33;9.93;;;6.33;;
50968;SDS011;36982;51.474;7.228;2024-03-08T13:03:59;5.43;;;4.00;;
50968;SDS011;36982;51.474;7.228;2024-03-08T13:06:26;8.33;;;5.70;;
50968;SDS011;36982;51.474;7.228;2024-03-08T13:08:53;9.90;;;5.97;;
50968;SDS011;36982;51.474;7.228;2024-03-08T13:11:20;8.63;;;5.27;;
50968;SDS011;36982;51.474;7.228;2024-03-08T13:13:46;8.77;;;5.27;;
50968;SDS011;36982;51.474;7.228;2024-03-08T13:16:12;8.03;;;5.73;;
50968;SDS011;36982;51.474;7.228;2024-03-08T13:18:42;7.60;;;5.37;;
50968;SDS011;36982;51.474;7.228;2024-03-08T13:21:08;8.80;;;5.70;;
50968;SDS011;36982;51.474;7.228;2024-03-08T13:23:35;7.73;;;4.97;;
50968;SDS011;36982;51.474;7.228;2024-03-08T13:26:08;8.90;;;6.20;;
50968;SDS011;36982;51.474;7.228;2024-03-08T13:28:35;10.43;;;6.03;;
50968;SDS011;36982;51.474;7.228;2024-03-08T13:31:03;9.33;;;6.13;;
50968;SDS011;36982;51.474;7.228;2024-03-08T13:33:32;8.13;;;6.10;;
50968;SDS011;36982;51.474;7.228;2024-03-08T13:36:01;9.07;;;6.40;;
50968;SDS011;36982;51.474;7.228;2024-03-08T13:38:28;6.67;;;5.23;;
50968;SDS011;36982;51.474;7.228;2024-03-08T13:40:54;8.27;;;5.33;;
50968;SDS011;36982;51.474;7.228;2024-03-08T13:43:19;9.03;;;5.67;;
50968;SDS011;36982;51.474;7.228;2024-03-08T13:45:45;6.67;;;4.37;;
50968;SDS011;36982;51.474;7.228;2024-03-08T13:48:11;8.73;;;5.73;;
50968;SDS011;36982;51.474;7.228;2024-03-08T13:50:37;8.60;;;5.73;;
50968;SDS011;36982;51.474;7.228;2024-03-08T13:53:03;9.50;;;6.40;;
50968;SDS011;36982;51.474;7.228;2024-03-08T13:55:29;8.23;;;5.87;;
50968;SDS011;36982;51.474;7.228;2024-03-08T13:57:55;8.90;;;5.77;;
50968;SDS011;36982;51.474;7.228;2024-03-08T14:00:22;11.37;;;6.20;;
50968;SDS011;36982;51.474;7.228;2024-03-08T14:02:50;7.93;;;4.27;;
50968;SDS011;36982;51.474;7.228;2024-03-08T14:05:16;9.47;;;6.00;;
50968;SDS011;36982;51.474;7.228;2024-03-08T14:07:42;9.13;;;5.20;;
50968;SDS011;36982;51.474;7.228;2024-03-08T14:10:11;8.37;;;5.73;;
50968;SDS011;36982;51.474;7.228;2024-03-08T14:12:37;10.40;;;6.77;;
50968;SDS011;36982;51.474;7.228;2024-03-08T14:15:04;9.27;;;5.67;;
50968;SDS011;36982;51.474;7.228;2024-03-08T14:17:31;9.87;;;6.23;;
50968;SDS011;36982;51.474;7.228;2024-03-08T14:19:57;9.27;;;5.47;;
50968;SDS011;36982;51.474;7.228;2024-03-08T14:22:24;11.20;;;6.97;;
50968;SDS011;36982;51.474;7.228;2024-03-08T14:24:49;10.80;;;6.37;;
50968;SDS011;36982;51.474;7.228;2024-03-08T14:27:16;10.27;;;5.93;;
50968;SDS011;36982;51.474;7.228;2024-03-08T14:29:43;10.37;;;7.00;;
50968;SDS011;36982;51.474;7.228;2024-03-08T14:32:09;8.87;;;5.43;;
50968;SDS011;36982;51.474;7.228;2024-03-08T14:34:35;10.73;;;6.40;;
50968;SDS011;36982;51.474;7.228;2024-03-08T14:37:01;11.33;;;6.93;;
50968;SDS011;36982;51.474;7.228;2024-03-08T14:39:30;8.87;;;6.27;;
50968;SDS011;36982;51.474;7.228;2024-03-08T14:41:58;11.30;;;6.83;;
50968;SDS011;36982;51.474;7.228;2024-03-08T14:44:25;10.27;;;6.77;;
50968;SDS011;36982;51.474;7.228;2024-03-08T14:46:57;10.17;;;6.17;;
50968;SDS011;36982;51.474;7.228;2024-03-08T14:49:23;10.37;;;7.03;;